sensor_id;sensor_type;location;lat;lon;timestamp;temperature;humidity
4324;DHT22;2175;51.018;6.994;2022-12-07T00:01:28;5.70;99.90
4324;DHT22;2175;51.018;6.994;2022-12-07T00:03:55;5.70;99.90
4324;DHT22;2175;51.018;6.994;2022-12-07T00:06:31;5.70;99.90
4324;DHT22;2175;51.018;6.994;2022-12-07T00:08:57;5.70;99.90
4324;DHT22;2175;51.018;6.994;2022-12-07T00:11:23;5.80;99.90
4324;DHT22;2175;51.018;6.994;2022-12-07T00:13:57;5.80;99.90
4324;DHT22;2175;51.018;6.994;2022-12-07T00:16:26;5.90;99.90
4324;DHT22;2175;51.018;6.994;2022-12-07T00:18:52;5.80;99.90
4324;DHT22;2175;51.018;6.994;2022-12-07T00:21:24;5.90;99.90
4324;DHT22;2175;51.018;6.994;2022-12-07T00:23:51;5.90;99.90
4324;DHT22;2175;51.018;6.994;2022-12-07T00:26:19;5.80;99.90
4324;DHT22;2175;51.018;6.994;2022-12-07T00:28:47;5.70;99.90
4324;DHT22;2175;51.018;6.994;2022-12-07T00:31:14;5.70;99.90
4324;DHT22;2175;51.018;6.994;2022-12-07T00:33:40;5.70;99.90
4324;DHT22;2175;51.018;6.994;2022-12-07T00:36:07;5.70;99.90
4324;DHT22;2175;51.018;6.994;2022-12-07T00:38:35;5.70;99.90
4324;DHT22;2175;51.018;6.994;2022-12-07T00:41:07;5.70;99.90
4324;DHT22;2175;51.018;6.994;2022-12-07T00:43:33;5.60;99.90
4324;DHT22;2175;51.018;6.994;2022-12-07T00:45:58;5.60;99.90
4324;DHT22;2175;51.018;6.994;2022-12-07T00:48:25;5.60;99.90
4324;DHT22;2175;51.018;6.994;2022-12-07T00:50:50;5.60;99.90
4324;DHT22;2175;51.018;6.994;2022-12-07T00:53:16;5.60;99.90
4324;DHT22;2175;51.018;6.994;2022-12-07T00:55:43;5.80;99.90
4324;DHT22;2175;51.018;6.994;2022-12-07T00:58:08;5.80;99.90
4324;DHT22;2175;51.018;6.994;2022-12-07T01:00:36;5.80;99.90
4324;DHT22;2175;51.018;6.994;2022-12-07T01:03:03;5.80;99.90
4324;DHT22;2175;51.018;6.994;2022-12-07T01:05:28;5.80;99.90
4324;DHT22;2175;51.018;6.994;2022-12-07T01:07:54;5.70;99.90
4324;DHT22;2175;51.018;6.994;2022-12-07T01:10:20;5.70;99.90
4324;DHT22;2175;51.018;6.994;2022-12-07T01:12:45;5.70;99.90
4324;DHT22;2175;51.018;6.994;2022-12-07T01:15:11;5.70;99.90
4324;DHT22;2175;51.018;6.994;2022-12-07T01:17:36;5.70;99.90
4324;DHT22;2175;51.018;6.994;2022-12-07T01:20:03;5.70;99.90
4324;DHT22;2175;51.018;6.994;2022-12-07T01:22:29;5.70;99.90
4324;DHT22;2175;51.018;6.994;2022-12-07T01:24:54;5.70;99.90
4324;DHT22;2175;51.018;6.994;2022-12-07T01:27:21;5.70;99.90
4324;DHT22;2175;51.018;6.994;2022-12-07T01:29:46;5.70;99.90
4324;DHT22;2175;51.018;6.994;2022-12-07T01:32:12;5.60;99.90
4324;DHT22;2175;51.018;6.994;2022-12-07T01:34:38;5.60;99.90
4324;DHT22;2175;51.018;6.994;2022-12-07T01:37:03;5.70;99.90
4324;DHT22;2175;51.018;6.994;2022-12-07T01:39:29;5.70;99.90
4324;DHT22;2175;51.018;6.994;2022-12-07T01:41:55;5.70;99.90
4324;DHT22;2175;51.018;6.994;2022-12-07T01:44:28;5.70;99.90
4324;DHT22;2175;51.018;6.994;2022-12-07T01:47:00;5.70;99.90
4324;DHT22;2175;51.018;6.994;2022-12-07T01:49:43;5.70;99.90
4324;DHT22;2175;51.018;6.994;2022-12-07T01:52:31;5.80;99.90
4324;DHT22;2175;51.018;6.994;2022-12-07T01:55:04;5.70;99.90
4324;DHT22;2175;51.018;6.994;2022-12-07T01:57:33;5.70;99.90
4324;DHT22;2175;51.018;6.994;2022-12-07T02:00:00;5.70;99.90
4324;DHT22;2175;51.018;6.994;2022-12-07T02:02:32;5.70;99.90
4324;DHT22;2175;51.018;6.994;2022-12-07T02:05:03;5.70;99.90
4324;DHT22;2175;51.018;6.994;2022-12-07T02:07:29;5.70;99.90
4324;DHT22;2175;51.018;6.994;2022-12-07T02:09:56;5.70;99.90
4324;DHT22;2175;51.018;6.994;2022-12-07T02:12:23;5.70;99.90
4324;DHT22;2175;51.018;6.994;2022-12-07T02:14:50;5.80;99.90
4324;DHT22;2175;51.018;6.994;2022-12-07T02:17:27;5.70;99.90
4324;DHT22;2175;51.018;6.994;2022-12-07T02:25:22;5.80;99.90
4324;DHT22;2175;51.018;6.994;2022-12-07T02:27:59;5.80;99.90
4324;DHT22;2175;51.018;6.994;2022-12-07T02:30:35;5.80;99.90
4324;DHT22;2175;51.018;6.994;2022-12-07T02:33:10;5.70;99.90
4324;DHT22;2175;51.018;6.994;2022-12-07T02:36:15;5.70;99.90
4324;DHT22;2175;51.018;6.994;2022-12-07T02:39:02;5.70;99.90
4324;DHT22;2175;51.018;6.994;2022-12-07T02:41:37;5.80;99.90
4324;DHT22;2175;51.018;6.994;2022-12-07T02:44:08;5.70;99.90
4324;DHT22;2175;51.018;6.994;2022-12-07T02:46:42;5.80;99.90
4324;DHT22;2175;51.018;6.994;2022-12-07T02:49:10;5.80;99.90
4324;DHT22;2175;51.018;6.994;2022-12-07T02:51:41;5.70;99.90
4324;DHT22;2175;51.018;6.994;2022-12-07T02:54:13;5.70;99.90
4324;DHT22;2175;51.018;6.994;2022-12-07T03:02:32;5.60;99.90
4324;DHT22;2175;51.018;6.994;2022-12-07T03:10:58;5.60;99.90
4324;DHT22;2175;51.018;6.994;2022-12-07T03:13:41;5.60;99.90
4324;DHT22;2175;51.018;6.994;2022-12-07T03:16:18;5.70;99.90
4324;DHT22;2175;51.018;6.994;2022-12-07T03:18:46;5.60;99.90
4324;DHT22;2175;51.018;6.994;2022-12-07T03:21:26;5.70;99.90
4324;DHT22;2175;51.018;6.994;2022-12-07T03:23:56;5.70;99.90
4324;DHT22;2175;51.018;6.994;2022-12-07T03:26:31;5.60;99.90
4324;DHT22;2175;51.018;6.994;2022-12-07T03:29:01;5.60;99.90
4324;DHT22;2175;51.018;6.994;2022-12-07T03:31:41;5.50;99.90
4324;DHT22;2175;51.018;6.994;2022-12-07T03:34:32;5.60;99.90
4324;DHT22;2175;51.018;6.994;2022-12-07T03:37:18;5.60;99.90
4324;DHT22;2175;51.018;6.994;2022-12-07T03:42:39;5.60;99.90
4324;DHT22;2175;51.018;6.994;2022-12-07T03:45:06;5.50;99.90
4324;DHT22;2175;51.018;6.994;2022-12-07T03:47:47;5.60;99.90
4324;DHT22;2175;51.018;6.994;2022-12-07T03:53:31;5.60;99.90
4324;DHT22;2175;51.018;6.994;2022-12-07T03:56:00;5.60;99.90
4324;DHT22;2175;51.018;6.994;2022-12-07T03:58:26;5.60;99.90
4324;DHT22;2175;51.018;6.994;2022-12-07T04:00:52;5.70;99.90
4324;DHT22;2175;51.018;6.994;2022-12-07T04:03:18;5.70;99.90
4324;DHT22;2175;51.018;6.994;2022-12-07T04:05:44;5.60;99.90
4324;DHT22;2175;51.018;6.994;2022-12-07T04:08:09;5.60;99.90
4324;DHT22;2175;51.018;6.994;2022-12-07T04:10:35;5.70;99.90
4324;DHT22;2175;51.018;6.994;2022-12-07T04:13:01;5.60;99.90
4324;DHT22;2175;51.018;6.994;2022-12-07T04:15:26;5.60;99.90
4324;DHT22;2175;51.018;6.994;2022-12-07T04:17:52;5.60;99.90
4324;DHT22;2175;51.018;6.994;2022-12-07T04:20:19;5.60;99.90
4324;DHT22;2175;51.018;6.994;2022-12-07T04:22:44;5.50;99.90
4324;DHT22;2175;51.018;6.994;2022-12-07T04:25:10;5.60;99.90
4324;DHT22;2175;51.018;6.994;2022-12-07T04:27:36;5.60;99.90
4324;DHT22;2175;51.018;6.994;2022-12-07T04:30:01;5.60;99.90
4324;DHT22;2175;51.018;6.994;2022-12-07T04:32:27;5.70;99.90
4324;DHT22;2175;51.018;6.994;2022-12-07T04:34:52;5.60;99.90
4324;DHT22;2175;51.018;6.994;2022-12-07T04:37:18;5.60;99.90
4324;DHT22;2175;51.018;6.994;2022-12-07T04:39:44;5.70;99.90
4324;DHT22;2175;51.018;6.994;2022-12-07T04:42:12;5.70;99.90
4324;DHT22;2175;51.018;6.994;2022-12-07T04:44:38;5.70;99.90
4324;DHT22;2175;51.018;6.994;2022-12-07T04:47:04;5.80;99.90
4324;DHT22;2175;51.018;6.994;2022-12-07T04:49:29;5.80;99.90
4324;DHT22;2175;51.018;6.994;2022-12-07T04:51:55;5.70;99.90
4324;DHT22;2175;51.018;6.994;2022-12-07T04:54:21;5.80;99.90
4324;DHT22;2175;51.018;6.994;2022-12-07T04:56:46;5.70;99.90
4324;DHT22;2175;51.018;6.994;2022-12-07T04:59:13;5.70;99.90
4324;DHT22;2175;51.018;6.994;2022-12-07T05:01:40;5.80;99.90
4324;DHT22;2175;51.018;6.994;2022-12-07T05:04:05;5.70;99.90
4324;DHT22;2175;51.018;6.994;2022-12-07T05:06:31;5.70;99.90
4324;DHT22;2175;51.018;6.994;2022-12-07T05:08:57;5.80;99.90
4324;DHT22;2175;51.018;6.994;2022-12-07T05:11:22;5.80;99.90
4324;DHT22;2175;51.018;6.994;2022-12-07T05:14:14;5.80;99.90
4324;DHT22;2175;51.018;6.994;2022-12-07T05:16:40;5.70;99.90
4324;DHT22;2175;51.018;6.994;2022-12-07T05:19:08;5.70;99.90
4324;DHT22;2175;51.018;6.994;2022-12-07T05:21:34;5.70;99.90
4324;DHT22;2175;51.018;6.994;2022-12-07T05:23:59;5.70;99.90
4324;DHT22;2175;51.018;6.994;2022-12-07T05:26:26;5.70;99.90
4324;DHT22;2175;51.018;6.994;2022-12-07T05:28:55;5.70;99.90
4324;DHT22;2175;51.018;6.994;2022-12-07T05:31:22;5.70;99.90
4324;DHT22;2175;51.018;6.994;2022-12-07T05:33:48;5.70;99.90
4324;DHT22;2175;51.018;6.994;2022-12-07T05:36:13;5.50;99.90
4324;DHT22;2175;51.018;6.994;2022-12-07T05:38:39;5.50;99.90
4324;DHT22;2175;51.018;6.994;2022-12-07T05:41:06;5.60;99.90
4324;DHT22;2175;51.018;6.994;2022-12-07T05:43:32;5.50;99.90
4324;DHT22;2175;51.018;6.994;2022-12-07T05:45:58;5.50;99.90
4324;DHT22;2175;51.018;6.994;2022-12-07T05:48:24;5.50;99.90
4324;DHT22;2175;51.018;6.994;2022-12-07T05:50:51;5.50;99.90
4324;DHT22;2175;51.018;6.994;2022-12-07T05:53:16;5.50;99.90
4324;DHT22;2175;51.018;6.994;2022-12-07T05:55:43;5.50;99.90
4324;DHT22;2175;51.018;6.994;2022-12-07T05:58:18;5.40;99.90
4324;DHT22;2175;51.018;6.994;2022-12-07T06:01:02;5.40;99.90
4324;DHT22;2175;51.018;6.994;2022-12-07T06:03:28;5.40;99.90
4324;DHT22;2175;51.018;6.994;2022-12-07T06:05:54;5.40;99.90
4324;DHT22;2175;51.018;6.994;2022-12-07T06:08:19;5.30;99.90
4324;DHT22;2175;51.018;6.994;2022-12-07T06:10:47;5.30;99.90
4324;DHT22;2175;51.018;6.994;2022-12-07T06:13:33;5.30;99.90
4324;DHT22;2175;51.018;6.994;2022-12-07T06:15:58;5.20;99.90
4324;DHT22;2175;51.018;6.994;2022-12-07T06:18:24;5.20;99.90
4324;DHT22;2175;51.018;6.994;2022-12-07T06:20:49;5.20;99.90
4324;DHT22;2175;51.018;6.994;2022-12-07T06:23:15;5.20;99.90
4324;DHT22;2175;51.018;6.994;2022-12-07T06:25:45;5.20;99.90
4324;DHT22;2175;51.018;6.994;2022-12-07T06:28:11;5.20;99.90
4324;DHT22;2175;51.018;6.994;2022-12-07T06:30:36;5.30;99.90
4324;DHT22;2175;51.018;6.994;2022-12-07T06:33:02;5.20;99.90
4324;DHT22;2175;51.018;6.994;2022-12-07T06:35:27;5.30;99.90
4324;DHT22;2175;51.018;6.994;2022-12-07T06:37:53;5.20;99.90
4324;DHT22;2175;51.018;6.994;2022-12-07T06:40:18;5.20;99.90
4324;DHT22;2175;51.018;6.994;2022-12-07T06:42:44;5.20;99.90
4324;DHT22;2175;51.018;6.994;2022-12-07T06:45:10;5.20;99.90
4324;DHT22;2175;51.018;6.994;2022-12-07T06:47:35;5.20;99.90
4324;DHT22;2175;51.018;6.994;2022-12-07T06:50:01;5.30;99.90
4324;DHT22;2175;51.018;6.994;2022-12-07T06:52:26;5.40;99.90
4324;DHT22;2175;51.018;6.994;2022-12-07T06:54:52;5.40;99.90
4324;DHT22;2175;51.018;6.994;2022-12-07T06:57:17;5.40;99.90
4324;DHT22;2175;51.018;6.994;2022-12-07T06:59:43;5.40;99.90
4324;DHT22;2175;51.018;6.994;2022-12-07T07:02:09;5.30;99.90
4324;DHT22;2175;51.018;6.994;2022-12-07T07:04:35;5.30;99.90
4324;DHT22;2175;51.018;6.994;2022-12-07T07:07:00;5.20;99.90
4324;DHT22;2175;51.018;6.994;2022-12-07T07:09:26;5.20;99.90
4324;DHT22;2175;51.018;6.994;2022-12-07T07:11:52;5.20;99.90
4324;DHT22;2175;51.018;6.994;2022-12-07T07:14:17;5.20;99.90
4324;DHT22;2175;51.018;6.994;2022-12-07T07:16:44;5.30;99.90
4324;DHT22;2175;51.018;6.994;2022-12-07T07:19:10;5.20;99.90
4324;DHT22;2175;51.018;6.994;2022-12-07T07:21:36;5.20;99.90
4324;DHT22;2175;51.018;6.994;2022-12-07T07:24:02;5.20;99.90
4324;DHT22;2175;51.018;6.994;2022-12-07T07:26:27;5.20;99.90
4324;DHT22;2175;51.018;6.994;2022-12-07T07:28:53;5.20;99.90
4324;DHT22;2175;51.018;6.994;2022-12-07T07:31:18;5.20;99.90
4324;DHT22;2175;51.018;6.994;2022-12-07T07:33:46;5.20;99.90
4324;DHT22;2175;51.018;6.994;2022-12-07T07:36:12;5.30;99.90
4324;DHT22;2175;51.018;6.994;2022-12-07T07:38:37;5.30;99.90
4324;DHT22;2175;51.018;6.994;2022-12-07T07:41:03;5.40;99.90
4324;DHT22;2175;51.018;6.994;2022-12-07T07:43:28;5.40;99.90
4324;DHT22;2175;51.018;6.994;2022-12-07T07:45:54;5.50;99.90
4324;DHT22;2175;51.018;6.994;2022-12-07T07:48:19;5.40;99.90
4324;DHT22;2175;51.018;6.994;2022-12-07T07:50:45;5.40;99.90
4324;DHT22;2175;51.018;6.994;2022-12-07T07:53:11;5.50;99.90
4324;DHT22;2175;51.018;6.994;2022-12-07T07:55:36;5.50;99.90
4324;DHT22;2175;51.018;6.994;2022-12-07T07:58:02;5.50;99.90
4324;DHT22;2175;51.018;6.994;2022-12-07T08:00:28;5.50;99.90
4324;DHT22;2175;51.018;6.994;2022-12-07T08:02:54;5.60;99.90
4324;DHT22;2175;51.018;6.994;2022-12-07T08:05:20;5.50;99.90
4324;DHT22;2175;51.018;6.994;2022-12-07T08:07:45;5.60;99.90
4324;DHT22;2175;51.018;6.994;2022-12-07T08:10:13;5.60;99.90
4324;DHT22;2175;51.018;6.994;2022-12-07T08:12:40;5.60;99.90
4324;DHT22;2175;51.018;6.994;2022-12-07T08:15:29;5.50;99.90
4324;DHT22;2175;51.018;6.994;2022-12-07T08:17:55;5.50;99.90
4324;DHT22;2175;51.018;6.994;2022-12-07T08:20:21;5.60;99.90
4324;DHT22;2175;51.018;6.994;2022-12-07T08:22:46;5.60;99.90
4324;DHT22;2175;51.018;6.994;2022-12-07T08:25:12;5.50;99.90
4324;DHT22;2175;51.018;6.994;2022-12-07T08:27:37;5.50;99.90
4324;DHT22;2175;51.018;6.994;2022-12-07T08:30:03;5.60;99.90
4324;DHT22;2175;51.018;6.994;2022-12-07T08:32:29;5.50;99.90
4324;DHT22;2175;51.018;6.994;2022-12-07T08:34:55;5.60;99.90
4324;DHT22;2175;51.018;6.994;2022-12-07T08:37:20;5.70;99.90
4324;DHT22;2175;51.018;6.994;2022-12-07T08:39:46;5.60;99.90
4324;DHT22;2175;51.018;6.994;2022-12-07T08:42:11;5.70;99.90
4324;DHT22;2175;51.018;6.994;2022-12-07T08:44:37;5.70;99.90
4324;DHT22;2175;51.018;6.994;2022-12-07T08:47:05;5.70;99.90
4324;DHT22;2175;51.018;6.994;2022-12-07T08:49:38;5.70;99.90
4324;DHT22;2175;51.018;6.994;2022-12-07T08:52:04;5.70;99.90
4324;DHT22;2175;51.018;6.994;2022-12-07T08:54:30;5.60;99.90
4324;DHT22;2175;51.018;6.994;2022-12-07T08:56:57;5.60;99.90
4324;DHT22;2175;51.018;6.994;2022-12-07T08:59:23;5.60;99.90
4324;DHT22;2175;51.018;6.994;2022-12-07T09:01:49;5.60;99.90
4324;DHT22;2175;51.018;6.994;2022-12-07T09:04:14;5.70;99.90
4324;DHT22;2175;51.018;6.994;2022-12-07T09:06:42;5.80;99.90
4324;DHT22;2175;51.018;6.994;2022-12-07T09:09:08;5.90;99.90
4324;DHT22;2175;51.018;6.994;2022-12-07T09:11:34;5.90;99.90
4324;DHT22;2175;51.018;6.994;2022-12-07T09:14:00;5.90;99.90
4324;DHT22;2175;51.018;6.994;2022-12-07T09:16:25;5.90;99.90
4324;DHT22;2175;51.018;6.994;2022-12-07T09:18:51;6.00;99.90
4324;DHT22;2175;51.018;6.994;2022-12-07T09:21:17;6.00;99.90
4324;DHT22;2175;51.018;6.994;2022-12-07T09:23:42;6.00;99.90
4324;DHT22;2175;51.018;6.994;2022-12-07T09:26:08;5.90;99.90
4324;DHT22;2175;51.018;6.994;2022-12-07T09:28:34;5.80;99.90
4324;DHT22;2175;51.018;6.994;2022-12-07T09:30:59;5.90;99.90
4324;DHT22;2175;51.018;6.994;2022-12-07T09:33:25;5.80;99.90
4324;DHT22;2175;51.018;6.994;2022-12-07T09:35:51;5.80;99.90
4324;DHT22;2175;51.018;6.994;2022-12-07T09:38:18;5.80;99.90
4324;DHT22;2175;51.018;6.994;2022-12-07T09:40:44;5.80;99.90
4324;DHT22;2175;51.018;6.994;2022-12-07T09:43:15;5.80;99.90
4324;DHT22;2175;51.018;6.994;2022-12-07T09:45:42;5.90;99.90
4324;DHT22;2175;51.018;6.994;2022-12-07T09:48:18;6.00;99.90
4324;DHT22;2175;51.018;6.994;2022-12-07T09:50:46;6.10;99.90
4324;DHT22;2175;51.018;6.994;2022-12-07T09:53:26;6.10;99.90
4324;DHT22;2175;51.018;6.994;2022-12-07T09:55:54;6.20;99.90
4324;DHT22;2175;51.018;6.994;2022-12-07T09:58:28;6.30;99.90
4324;DHT22;2175;51.018;6.994;2022-12-07T10:00:59;6.30;99.90
4324;DHT22;2175;51.018;6.994;2022-12-07T10:03:27;6.40;99.90
4324;DHT22;2175;51.018;6.994;2022-12-07T10:05:53;6.30;99.90
4324;DHT22;2175;51.018;6.994;2022-12-07T10:08:19;6.40;99.90
4324;DHT22;2175;51.018;6.994;2022-12-07T10:10:52;6.40;99.90
4324;DHT22;2175;51.018;6.994;2022-12-07T10:13:33;6.50;99.90
4324;DHT22;2175;51.018;6.994;2022-12-07T10:15:59;6.50;99.90
4324;DHT22;2175;51.018;6.994;2022-12-07T10:21:22;6.40;99.90
4324;DHT22;2175;51.018;6.994;2022-12-07T10:24:14;6.40;99.90
4324;DHT22;2175;51.018;6.994;2022-12-07T10:29:19;6.40;99.90
4324;DHT22;2175;51.018;6.994;2022-12-07T10:32:00;6.30;99.90
4324;DHT22;2175;51.018;6.994;2022-12-07T10:34:32;6.30;99.90
4324;DHT22;2175;51.018;6.994;2022-12-07T10:39:49;6.50;99.90
4324;DHT22;2175;51.018;6.994;2022-12-07T10:42:23;6.60;99.90
4324;DHT22;2175;51.018;6.994;2022-12-07T10:45:06;6.60;99.90
4324;DHT22;2175;51.018;6.994;2022-12-07T10:48:10;6.60;99.90
4324;DHT22;2175;51.018;6.994;2022-12-07T10:53:44;6.70;99.90
4324;DHT22;2175;51.018;6.994;2022-12-07T10:56:34;6.80;99.90
4324;DHT22;2175;51.018;6.994;2022-12-07T10:59:25;6.90;99.90
4324;DHT22;2175;51.018;6.994;2022-12-07T11:05:39;6.90;99.90
4324;DHT22;2175;51.018;6.994;2022-12-07T11:07:46;6.90;99.90
4324;DHT22;2175;51.018;6.994;2022-12-07T11:10:21;7.00;99.90
4324;DHT22;2175;51.018;6.994;2022-12-07T11:20:44;6.90;99.90
4324;DHT22;2175;51.018;6.994;2022-12-07T11:25:53;6.80;99.90
4324;DHT22;2175;51.018;6.994;2022-12-07T11:33:44;6.90;99.90
4324;DHT22;2175;51.018;6.994;2022-12-07T11:36:36;6.80;99.90
4324;DHT22;2175;51.018;6.994;2022-12-07T11:41:48;6.70;99.90
4324;DHT22;2175;51.018;6.994;2022-12-07T11:47:13;6.70;99.90
4324;DHT22;2175;51.018;6.994;2022-12-07T11:52:45;6.90;99.90
4324;DHT22;2175;51.018;6.994;2022-12-07T11:55:48;7.10;99.90
4324;DHT22;2175;51.018;6.994;2022-12-07T12:01:36;7.20;99.90
4324;DHT22;2175;51.018;6.994;2022-12-07T12:06:41;7.10;99.90
4324;DHT22;2175;51.018;6.994;2022-12-07T12:14:48;6.80;99.90
4324;DHT22;2175;51.018;6.994;2022-12-07T12:23:01;6.90;99.90
4324;DHT22;2175;51.018;6.994;2022-12-07T12:25:43;7.00;99.90
4324;DHT22;2175;51.018;6.994;2022-12-07T12:28:30;7.10;99.90
4324;DHT22;2175;51.018;6.994;2022-12-07T12:33:46;7.30;99.90
4324;DHT22;2175;51.018;6.994;2022-12-07T12:36:23;7.20;99.90
4324;DHT22;2175;51.018;6.994;2022-12-07T12:46:59;6.90;99.90
4324;DHT22;2175;51.018;6.994;2022-12-07T12:49:39;7.10;99.90
4324;DHT22;2175;51.018;6.994;2022-12-07T12:57:31;7.30;99.90
4324;DHT22;2175;51.018;6.994;2022-12-07T12:59:58;7.30;99.90
4324;DHT22;2175;51.018;6.994;2022-12-07T13:02:33;7.10;99.90
4324;DHT22;2175;51.018;6.994;2022-12-07T13:15:50;7.30;99.90
4324;DHT22;2175;51.018;6.994;2022-12-07T13:18:36;7.20;99.90
4324;DHT22;2175;51.018;6.994;2022-12-07T13:34:02;7.20;99.90
4324;DHT22;2175;51.018;6.994;2022-12-07T13:36:31;7.20;99.90
4324;DHT22;2175;51.018;6.994;2022-12-07T13:41:42;7.30;99.90
4324;DHT22;2175;51.018;6.994;2022-12-07T13:44:15;7.20;99.90
4324;DHT22;2175;51.018;6.994;2022-12-07T13:49:19;7.10;99.90
4324;DHT22;2175;51.018;6.994;2022-12-07T13:51:47;7.00;99.90
4324;DHT22;2175;51.018;6.994;2022-12-07T13:54:13;7.00;99.90
4324;DHT22;2175;51.018;6.994;2022-12-07T13:56:40;6.90;99.90
4324;DHT22;2175;51.018;6.994;2022-12-07T14:00:13;7.00;99.90
4324;DHT22;2175;51.018;6.994;2022-12-07T14:02:59;6.90;99.90
4324;DHT22;2175;51.018;6.994;2022-12-07T14:05:29;6.90;99.90
4324;DHT22;2175;51.018;6.994;2022-12-07T14:10:31;6.80;99.90
4324;DHT22;2175;51.018;6.994;2022-12-07T14:12:57;6.80;99.90
4324;DHT22;2175;51.018;6.994;2022-12-07T14:15:28;6.80;99.90
4324;DHT22;2175;51.018;6.994;2022-12-07T14:17:55;6.90;99.90
4324;DHT22;2175;51.018;6.994;2022-12-07T14:20:48;6.90;99.90
4324;DHT22;2175;51.018;6.994;2022-12-07T14:23:27;6.80;99.90
4324;DHT22;2175;51.018;6.994;2022-12-07T14:25:53;6.90;99.90
4324;DHT22;2175;51.018;6.994;2022-12-07T14:28:33;6.80;99.90
4324;DHT22;2175;51.018;6.994;2022-12-07T14:31:00;6.90;99.90
4324;DHT22;2175;51.018;6.994;2022-12-07T14:33:29;6.80;99.90
4324;DHT22;2175;51.018;6.994;2022-12-07T14:35:55;6.80;99.90
4324;DHT22;2175;51.018;6.994;2022-12-07T14:38:23;6.80;99.90
4324;DHT22;2175;51.018;6.994;2022-12-07T14:40:53;6.80;99.90
4324;DHT22;2175;51.018;6.994;2022-12-07T14:43:41;6.80;99.90
4324;DHT22;2175;51.018;6.994;2022-12-07T14:46:11;6.80;99.90
4324;DHT22;2175;51.018;6.994;2022-12-07T14:48:37;6.80;99.90
4324;DHT22;2175;51.018;6.994;2022-12-07T14:51:04;6.80;99.90
4324;DHT22;2175;51.018;6.994;2022-12-07T14:53:50;6.80;99.90
4324;DHT22;2175;51.018;6.994;2022-12-07T14:56:29;6.80;99.90
4324;DHT22;2175;51.018;6.994;2022-12-07T14:58:55;6.70;99.90
4324;DHT22;2175;51.018;6.994;2022-12-07T15:01:20;6.60;99.90
4324;DHT22;2175;51.018;6.994;2022-12-07T15:03:46;6.60;99.90
4324;DHT22;2175;51.018;6.994;2022-12-07T15:06:16;6.70;99.90
4324;DHT22;2175;51.018;6.994;2022-12-07T15:08:45;6.60;99.90
4324;DHT22;2175;51.018;6.994;2022-12-07T15:11:16;6.60;99.90
4324;DHT22;2175;51.018;6.994;2022-12-07T15:13:41;6.70;99.90
4324;DHT22;2175;51.018;6.994;2022-12-07T15:16:26;6.50;99.90
4324;DHT22;2175;51.018;6.994;2022-12-07T15:18:51;6.60;99.90
4324;DHT22;2175;51.018;6.994;2022-12-07T15:21:17;6.60;99.90
4324;DHT22;2175;51.018;6.994;2022-12-07T15:23:43;6.50;99.90
4324;DHT22;2175;51.018;6.994;2022-12-07T15:26:10;6.60;99.90
4324;DHT22;2175;51.018;6.994;2022-12-07T15:28:38;6.60;99.90
4324;DHT22;2175;51.018;6.994;2022-12-07T15:31:03;6.50;99.90
4324;DHT22;2175;51.018;6.994;2022-12-07T15:33:29;6.40;99.90
4324;DHT22;2175;51.018;6.994;2022-12-07T15:35:55;6.30;99.90
4324;DHT22;2175;51.018;6.994;2022-12-07T15:38:20;6.20;99.90
4324;DHT22;2175;51.018;6.994;2022-12-07T15:40:48;6.20;99.90
4324;DHT22;2175;51.018;6.994;2022-12-07T15:43:13;5.90;99.90
4324;DHT22;2175;51.018;6.994;2022-12-07T15:45:57;5.90;99.90
4324;DHT22;2175;51.018;6.994;2022-12-07T15:48:24;5.70;99.90
4324;DHT22;2175;51.018;6.994;2022-12-07T15:50:50;5.70;99.90
4324;DHT22;2175;51.018;6.994;2022-12-07T15:53:16;5.70;99.90
4324;DHT22;2175;51.018;6.994;2022-12-07T15:55:42;5.60;99.90
4324;DHT22;2175;51.018;6.994;2022-12-07T15:58:07;5.60;99.90
4324;DHT22;2175;51.018;6.994;2022-12-07T16:00:33;5.60;99.90
4324;DHT22;2175;51.018;6.994;2022-12-07T16:02:59;5.60;99.90
4324;DHT22;2175;51.018;6.994;2022-12-07T16:05:24;5.70;99.90
4324;DHT22;2175;51.018;6.994;2022-12-07T16:07:50;5.70;99.90
4324;DHT22;2175;51.018;6.994;2022-12-07T16:10:16;5.70;99.90
4324;DHT22;2175;51.018;6.994;2022-12-07T16:12:42;5.60;99.90
4324;DHT22;2175;51.018;6.994;2022-12-07T16:15:08;5.60;99.90
4324;DHT22;2175;51.018;6.994;2022-12-07T16:17:33;5.50;99.90
4324;DHT22;2175;51.018;6.994;2022-12-07T16:19:59;5.60;99.90
4324;DHT22;2175;51.018;6.994;2022-12-07T16:22:25;5.60;99.90
4324;DHT22;2175;51.018;6.994;2022-12-07T16:24:51;5.60;99.90
4324;DHT22;2175;51.018;6.994;2022-12-07T16:27:17;5.60;99.90
4324;DHT22;2175;51.018;6.994;2022-12-07T16:29:42;5.60;99.90
4324;DHT22;2175;51.018;6.994;2022-12-07T16:32:08;5.60;99.90
4324;DHT22;2175;51.018;6.994;2022-12-07T16:34:33;5.70;99.90
4324;DHT22;2175;51.018;6.994;2022-12-07T16:36:59;5.70;99.90
4324;DHT22;2175;51.018;6.994;2022-12-07T16:39:25;5.70;99.90
4324;DHT22;2175;51.018;6.994;2022-12-07T16:41:50;5.70;99.90
4324;DHT22;2175;51.018;6.994;2022-12-07T16:44:18;5.80;99.90
4324;DHT22;2175;51.018;6.994;2022-12-07T16:46:43;5.90;99.90
4324;DHT22;2175;51.018;6.994;2022-12-07T16:49:15;5.80;99.90
4324;DHT22;2175;51.018;6.994;2022-12-07T16:51:41;5.80;99.90
4324;DHT22;2175;51.018;6.994;2022-12-07T16:54:20;5.90;99.90
4324;DHT22;2175;51.018;6.994;2022-12-07T16:56:45;5.80;99.90
4324;DHT22;2175;51.018;6.994;2022-12-07T16:59:11;5.90;99.90
4324;DHT22;2175;51.018;6.994;2022-12-07T17:01:37;5.90;99.90
4324;DHT22;2175;51.018;6.994;2022-12-07T17:04:03;5.90;99.90
4324;DHT22;2175;51.018;6.994;2022-12-07T17:06:29;5.80;99.90
4324;DHT22;2175;51.018;6.994;2022-12-07T17:08:56;5.90;99.90
4324;DHT22;2175;51.018;6.994;2022-12-07T17:11:26;5.80;99.90
4324;DHT22;2175;51.018;6.994;2022-12-07T17:13:52;5.90;99.90
4324;DHT22;2175;51.018;6.994;2022-12-07T17:16:37;5.90;99.90
4324;DHT22;2175;51.018;6.994;2022-12-07T17:19:07;5.90;99.90
4324;DHT22;2175;51.018;6.994;2022-12-07T17:21:34;5.90;99.90
4324;DHT22;2175;51.018;6.994;2022-12-07T17:24:01;5.80;99.90
4324;DHT22;2175;51.018;6.994;2022-12-07T17:26:28;5.80;99.90
4324;DHT22;2175;51.018;6.994;2022-12-07T17:28:55;5.70;99.90
4324;DHT22;2175;51.018;6.994;2022-12-07T17:31:22;5.70;99.90
4324;DHT22;2175;51.018;6.994;2022-12-07T17:33:48;5.80;99.90
4324;DHT22;2175;51.018;6.994;2022-12-07T17:36:20;5.70;99.90
4324;DHT22;2175;51.018;6.994;2022-12-07T17:38:46;5.70;99.90
4324;DHT22;2175;51.018;6.994;2022-12-07T17:41:21;5.80;99.90
4324;DHT22;2175;51.018;6.994;2022-12-07T17:44:08;5.80;99.90
4324;DHT22;2175;51.018;6.994;2022-12-07T17:46:35;5.80;99.90
4324;DHT22;2175;51.018;6.994;2022-12-07T17:49:01;5.80;99.90
4324;DHT22;2175;51.018;6.994;2022-12-07T17:51:27;5.80;99.90
4324;DHT22;2175;51.018;6.994;2022-12-07T17:54:11;5.80;99.90
4324;DHT22;2175;51.018;6.994;2022-12-07T17:56:37;5.70;99.90
4324;DHT22;2175;51.018;6.994;2022-12-07T17:59:03;5.70;99.90
4324;DHT22;2175;51.018;6.994;2022-12-07T18:01:30;5.80;99.90
4324;DHT22;2175;51.018;6.994;2022-12-07T18:03:55;5.80;99.90
4324;DHT22;2175;51.018;6.994;2022-12-07T18:06:21;5.80;99.90
4324;DHT22;2175;51.018;6.994;2022-12-07T18:08:47;5.90;99.90
4324;DHT22;2175;51.018;6.994;2022-12-07T18:11:12;6.00;99.90
4324;DHT22;2175;51.018;6.994;2022-12-07T18:13:38;6.10;99.90
4324;DHT22;2175;51.018;6.994;2022-12-07T18:16:22;6.00;99.90
4324;DHT22;2175;51.018;6.994;2022-12-07T18:18:48;5.80;99.90
4324;DHT22;2175;51.018;6.994;2022-12-07T18:21:20;5.90;99.90
4324;DHT22;2175;51.018;6.994;2022-12-07T18:23:47;5.90;99.90
4324;DHT22;2175;51.018;6.994;2022-12-07T18:26:15;6.00;99.90
4324;DHT22;2175;51.018;6.994;2022-12-07T18:28:42;5.90;99.90
4324;DHT22;2175;51.018;6.994;2022-12-07T18:31:08;5.90;99.90
4324;DHT22;2175;51.018;6.994;2022-12-07T18:33:34;5.80;99.90
4324;DHT22;2175;51.018;6.994;2022-12-07T18:36:00;5.80;99.90
4324;DHT22;2175;51.018;6.994;2022-12-07T18:38:27;5.80;99.90